Time;durP1;ratioP1;P1;durP2;ratioP2;P2;SDS_P1;SDS_P2;PMS_P1;PMS_P2;Temp;Humidity;BMP_temperature;BMP_pressure;BME280_temperature;BME280_humidity;BME280_pressure;Samples;Min_cycle;Max_cycle;Signal;HPM_P1;HPM_P2
2021/01/28 00:01:13;;;;;;;0.50;0.50;;;;;;;-2.34;79.44;99122.44;4818795;29;20236;-79
2021/01/28 00:03:47;;;;;;;0.50;0.50;;;;;;;-2.29;79.32;99111.47;4836897;29;20239;-79
2021/01/28 00:06:18;;;;;;;0.40;0.40;;;;;;;-2.28;79.29;99110.47;4923539;23;20228;-79
2021/01/28 00:08:44;;;;;;;0.40;0.40;;;;;;;-2.26;79.55;99114.63;4895811;29;20535;-79
2021/01/28 00:11:11;;;;;;;0.50;0.50;;;;;;;-2.25;79.64;99108.41;4914148;29;20573;-79
2021/01/28 00:13:37;;;;;;;0.40;0.40;;;;;;;-2.19;79.30;99111.41;4913384;29;20222;-79
2021/01/28 00:16:04;;;;;;;0.40;0.40;;;;;;;-2.19;79.00;99100.91;4914112;29;20197;-79
2021/01/28 00:18:34;;;;;;;0.40;0.40;;;;;;;-2.19;79.12;99095.66;4911971;29;20284;-79
2021/01/28 00:21:00;;;;;;;0.50;0.50;;;;;;;-2.25;79.07;99094.44;4910813;29;20292;-79
2021/01/28 00:23:41;;;;;;;0.40;0.40;;;;;;;-2.13;78.75;99101.09;4908755;29;20313;-79
2021/01/28 00:26:08;;;;;;;0.50;0.50;;;;;;;-2.18;78.36;99079.72;4912379;29;20217;-79
2021/01/28 00:28:37;;;;;;;0.47;0.47;;;;;;;-2.10;78.27;99084.25;4912432;29;20228;-79
2021/01/28 00:31:03;;;;;;;0.40;0.40;;;;;;;-2.09;77.81;99078.00;4913003;29;20243;-79
2021/01/28 00:33:30;;;;;;;0.50;0.50;;;;;;;-2.11;78.03;99074.72;4911534;29;20201;-80
2021/01/28 00:35:59;;;;;;;0.50;0.50;;;;;;;-2.10;77.45;99076.38;4907973;29;20239;-79
2021/01/28 00:38:30;;;;;;;0.50;0.50;;;;;;;-2.10;77.43;99066.66;4893274;29;20320;-79
2021/01/28 00:41:06;;;;;;;0.40;0.40;;;;;;;-1.97;76.75;99075.00;4914385;29;20185;-79
2021/01/28 00:43:33;;;;;;;0.40;0.40;;;;;;;-1.95;76.53;99074.81;4912612;29;20220;-79
2021/01/28 00:46:04;;;;;;;0.40;0.40;;;;;;;-1.90;76.33;99090.94;4926994;29;20220;-79
2021/01/28 00:48:33;;;;;;;0.40;0.40;;;;;;;-1.96;76.26;99068.72;4910766;29;20294;-79
2021/01/28 00:51:03;;;;;;;0.50;0.50;;;;;;;-1.82;76.47;99096.25;4909625;29;20237;-79
2021/01/28 00:53:35;;;;;;;0.40;0.40;;;;;;;-1.91;76.39;99076.97;4920357;29;20229;-79
2021/01/28 00:56:02;;;;;;;0.40;0.40;;;;;;;-1.86;76.12;99087.03;4888400;29;20285;-79
2021/01/28 00:58:50;;;;;;;0.43;0.43;;;;;;;-1.90;76.34;99076.00;4889606;29;20237;-79
2021/01/28 01:01:21;;;;;;;0.47;0.47;;;;;;;-1.84;76.26;99080.66;4887766;29;20315;-79
2021/01/28 01:03:48;;;;;;;0.50;0.50;;;;;;;-1.88;76.23;99068.81;4886449;29;20247;-79
2021/01/28 01:06:15;;;;;;;0.40;0.40;;;;;;;-1.80;76.12;99086.41;4885874;29;20255;-79
2021/01/28 01:08:53;;;;;;;0.50;0.50;;;;;;;-1.67;76.48;99093.88;4907561;29;20243;-79
2021/01/28 01:11:26;;;;;;;0.40;0.40;;;;;;;-1.63;76.14;99092.59;4918312;29;20324;-79
2021/01/28 01:14:07;;;;;;;0.50;0.50;;;;;;;-1.67;75.83;99083.38;4918724;29;20683;-79
2021/01/28 01:16:34;;;;;;;0.50;0.50;;;;;;;-1.57;75.58;99091.97;4918045;23;20242;-79
2021/01/28 01:19:13;;;;;;;0.47;0.47;;;;;;;-1.54;75.66;99084.59;4923601;29;20239;-79
2021/01/28 01:22:03;;;;;;;0.40;0.40;;;;;;;-1.58;75.86;99085.06;4916065;28;20596;-79
2021/01/28 01:24:31;;;;;;;0.47;0.47;;;;;;;-1.56;75.53;99067.34;4945052;28;20599;-79
2021/01/28 01:27:00;;;;;;;0.50;0.50;;;;;;;-1.55;75.55;99064.56;4944509;28;20267;-79
2021/01/28 01:29:31;;;;;;;0.40;0.40;;;;;;;-1.47;75.44;99072.50;4941902;23;20220;-79
2021/01/28 01:32:18;;;;;;;0.50;0.50;;;;;;;-1.41;75.63;99074.50;4904422;29;20239;-79
2021/01/28 01:35:29;;;;;;;0.40;0.40;;;;;;;-1.37;75.20;99082.88;4930986;29;20275;-79
2021/01/28 01:38:12;;;;;;;0.50;0.50;;;;;;;-1.46;75.32;99066.25;4931995;28;20278;-80
2021/01/28 01:40:56;;;;;;;0.40;0.40;;;;;;;-1.46;75.36;99052.28;4929863;29;20239;-79
2021/01/28 01:43:40;;;;;;;0.40;0.40;;;;;;;-1.39;75.48;99067.28;4919136;29;20227;-79
2021/01/28 01:46:12;;;;;;;0.40;0.40;;;;;;;-1.29;75.55;99074.22;4930807;29;20259;-79
2021/01/28 01:49:02;;;;;;;0.40;0.40;;;;;;;-1.23;75.41;99076.22;4956245;23;20555;-79
2021/01/28 01:54:55;;;;;;;0.40;0.40;;;;;;;-1.38;75.57;99047.91;4889809;29;20237;-79
2021/01/28 01:57:33;;;;;;;0.40;0.40;;;;;;;-1.15;75.47;99063.91;4928809;23;20239;-79
2021/01/28 02:00:19;;;;;;;0.40;0.40;;;;;;;-1.11;75.81;99059.16;4904332;23;20236;-79
2021/01/28 02:03:14;;;;;;;0.40;0.40;;;;;;;-1.16;75.93;99045.66;4951240;23;20254;-79
2021/01/28 02:06:46;;;;;;;0.40;0.40;;;;;;;-1.04;75.44;99060.19;4922668;29;20302;-79
2021/01/28 02:09:51;;;;;;;0.40;0.40;;;;;;;-1.18;75.54;99032.69;4860876;29;20214;-79
2021/01/28 02:12:35;;;;;;;0.40;0.40;;;;;;;-1.08;75.52;99033.41;4872520;29;20321;-79
2021/01/28 02:15:10;;;;;;;0.40;0.40;;;;;;;-0.99;76.08;99044.75;4908536;29;20228;-79
2021/01/28 02:17:58;;;;;;;0.40;0.40;;;;;;;-1.03;76.11;99043.44;4957693;23;20246;-79
2021/01/28 02:20:52;;;;;;;0.40;0.40;;;;;;;-0.95;76.15;99044.28;4949779;23;20651;-79
2021/01/28 02:23:48;;;;;;;0.40;0.40;;;;;;;-0.96;76.07;99042.63;4956337;23;20215;-79
2021/01/28 02:26:32;;;;;;;0.40;0.40;;;;;;;-0.89;75.94;99040.97;4957662;23;20585;-79
2021/01/28 02:29:25;;;;;;;0.40;0.40;;;;;;;-0.95;75.94;99035.56;4943288;29;20227;-80
2021/01/28 02:32:14;;;;;;;0.40;0.40;;;;;;;-0.86;75.88;99039.03;4938958;29;20227;-79
2021/01/28 02:34:59;;;;;;;0.40;0.40;;;;;;;-0.94;75.66;99024.88;4970837;28;20251;-79
2021/01/28 02:37:29;;;;;;;0.40;0.40;;;;;;;-0.86;75.83;99025.88;4954310;28;20547;-79
2021/01/28 02:40:16;;;;;;;0.40;0.40;;;;;;;-0.83;75.93;99030.78;4956208;28;20232;-79
2021/01/28 02:43:06;;;;;;;0.40;0.40;;;;;;;-0.77;75.99;99027.53;4936062;29;20258;-79
2021/01/28 02:46:20;;;;;;;0.40;0.40;;;;;;;-0.72;76.14;99028.69;4922313;29;20239;-79
2021/01/28 02:48:58;;;;;;;0.40;0.40;;;;;;;-0.70;76.27;99029.34;4932231;29;20242;-79
2021/01/28 02:51:30;;;;;;;0.40;0.40;;;;;;;-0.73;76.48;99021.78;4936433;29;20303;-79
2021/01/28 02:53:59;;;;;;;0.40;0.40;;;;;;;-0.76;77.18;99011.59;4917526;29;20240;-79
2021/01/28 02:56:27;;;;;;;0.40;0.40;;;;;;;-0.67;77.14;99022.94;4915349;29;20242;-79
2021/01/28 02:58:59;;;;;;;0.47;0.47;;;;;;;-0.70;77.39;99008.28;4915131;29;20230;-79
2021/01/28 03:01:29;;;;;;;0.40;0.40;;;;;;;-0.71;77.38;99005.84;4909834;29;20237;-79
2021/01/28 03:04:14;;;;;;;0.40;0.40;;;;;;;-0.72;77.44;98993.66;4903804;29;20236;-79
2021/01/28 03:07:08;;;;;;;0.40;0.40;;;;;;;-0.65;77.50;98992.84;4957510;23;20251;-79
2021/01/28 03:09:36;;;;;;;0.40;0.40;;;;;;;-0.61;77.75;98998.63;4927198;23;20267;-79
2021/01/28 03:12:23;;;;;;;0.40;0.40;;;;;;;-0.68;77.82;98976.56;4915209;29;20232;-79
2021/01/28 03:14:56;;;;;;;0.40;0.40;;;;;;;-0.61;77.70;98991.56;4915058;29;20216;-79
2021/01/28 03:17:22;;;;;;;0.40;0.40;;;;;;;-0.70;77.87;98971.47;4928553;29;20300;-79
2021/01/28 03:19:56;;;;;;;0.40;0.40;;;;;;;-0.63;77.94;98979.53;4917157;29;20235;-79
2021/01/28 03:22:25;;;;;;;0.43;0.43;;;;;;;-0.55;77.89;99004.03;4947029;29;20238;-79
2021/01/28 03:25:20;;;;;;;0.50;0.50;;;;;;;-0.65;77.40;98979.69;4922592;29;20239;-79
2021/01/28 03:27:51;;;;;;;0.40;0.40;;;;;;;-0.53;77.14;98999.44;4928722;23;20318;-79
2021/01/28 03:30:26;;;;;;;0.40;0.40;;;;;;;-0.54;77.10;98999.59;4909949;29;20223;-79
2021/01/28 03:32:56;;;;;;;0.40;0.40;;;;;;;-0.53;77.15;98999.44;4893644;29;20276;-79
2021/01/28 03:35:24;;;;;;;0.40;0.40;;;;;;;-0.52;77.03;98993.19;4925713;29;20239;-79
2021/01/28 03:37:59;;;;;;;0.40;0.40;;;;;;;-0.50;77.43;98993.03;4895690;29;20256;-80
2021/01/28 03:40:28;;;;;;;0.40;0.40;;;;;;;-0.57;77.84;98986.78;4892981;29;20256;-79
2021/01/28 03:43:01;;;;;;;0.40;0.40;;;;;;;-0.54;78.06;98989.91;4896309;29;20228;-79
2021/01/28 03:45:27;;;;;;;0.40;0.40;;;;;;;-0.59;78.73;98965.06;4893813;29;20303;-79
2021/01/28 03:48:07;;;;;;;0.40;0.40;;;;;;;-0.50;79.53;98987.75;4893653;29;20232;-79
2021/01/28 03:51:05;;;;;;;0.40;0.40;;;;;;;-0.57;79.96;98978.88;4942671;23;20235;-80
2021/01/28 03:53:52;;;;;;;0.40;0.40;;;;;;;-0.59;80.57;98970.31;4934725;29;20284;-79
2021/01/28 03:56:26;;;;;;;0.47;0.47;;;;;;;-0.50;80.66;98985.94;4926815;28;20230;-79
2021/01/28 03:58:58;;;;;;;0.40;0.40;;;;;;;-0.52;81.11;98968.69;4954179;23;20542;-80
2021/01/28 04:01:55;;;;;;;0.40;0.40;;;;;;;-0.49;81.45;98965.72;4947507;28;20264;-79
2021/01/28 04:04:40;;;;;;;0.40;0.40;;;;;;;-0.55;82.05;98954.03;4942242;29;20235;-80
2021/01/28 04:07:28;;;;;;;0.40;0.40;;;;;;;-0.52;82.02;98956.38;4946053;29;20242;-79
2021/01/28 04:09:57;;;;;;;0.40;0.40;;;;;;;-0.51;82.20;98952.72;4949232;28;20231;-79
2021/01/28 04:12:26;;;;;;;0.40;0.40;;;;;;;-0.46;82.56;98952.22;4928212;29;20299;-79
2021/01/28 04:15:07;;;;;;;0.40;0.40;;;;;;;-0.44;83.12;98955.53;4939140;23;20247;-79
2021/01/28 04:17:42;;;;;;;0.40;0.40;;;;;;;-0.41;83.02;98946.47;4904194;29;20248;-79
2021/01/28 04:20:27;;;;;;;0.40;0.40;;;;;;;-0.45;83.60;98932.81;4874556;29;20251;-79
2021/01/28 04:22:58;;;;;;;0.40;0.40;;;;;;;-0.46;83.55;98926.72;4870228;29;20234;-79
2021/01/28 04:25:50;;;;;;;0.37;0.37;;;;;;;-0.46;83.38;98931.16;4862149;29;20229;-79
2021/01/28 04:28:17;;;;;;;0.40;0.40;;;;;;;-0.49;83.79;98924.44;4876200;29;20585;-79
2021/01/28 04:30:57;;;;;;;0.40;0.40;;;;;;;-0.40;83.49;98937.59;4874983;23;20230;-79
2021/01/28 04:33:23;;;;;;;0.40;0.40;;;;;;;-0.37;83.41;98938.06;4883421;23;20638;-79
2021/01/28 04:36:17;;;;;;;0.50;0.50;;;;;;;-0.45;83.59;98936.28;4928765;28;20258;-79
2021/01/28 04:39:05;;;;;;;0.43;0.43;;;;;;;-0.35;83.19;98943.16;4943741;29;20235;-80
2021/01/28 04:41:52;;;;;;;0.40;0.40;;;;;;;-0.37;83.48;98927.53;4918581;29;20235;-79
2021/01/28 04:44:19;;;;;;;0.43;0.43;;;;;;;-0.49;83.15;98923.63;4910650;28;20691;-79
2021/01/28 04:47:08;;;;;;;0.50;0.50;;;;;;;-0.38;83.43;98930.34;4916508;29;20239;-79
2021/01/28 04:49:39;;;;;;;0.40;0.40;;;;;;;-0.54;83.74;98907.50;4927238;29;20238;-79
2021/01/28 04:52:39;;;;;;;0.40;0.40;;;;;;;-0.48;84.06;98912.09;4932882;29;20322;-79
2021/01/28 04:55:48;;;;;;;0.40;0.40;;;;;;;-0.40;84.02;98930.50;4912954;29;20236;-79
2021/01/28 04:58:15;;;;;;;0.40;0.40;;;;;;;-0.40;84.42;98922.63;4914510;28;20239;-79
2021/01/28 05:01:15;;;;;;;0.40;0.40;;;;;;;-0.49;84.22;98906.03;4928960;29;20662;-80
2021/01/28 05:04:23;;;;;;;0.40;0.40;;;;;;;-0.39;83.95;98924.28;4944891;28;20220;-79
2021/01/28 05:07:26;;;;;;;0.40;0.40;;;;;;;-0.43;83.88;98925.59;4930651;29;20220;-80
2021/01/28 05:10:16;;;;;;;0.50;0.50;;;;;;;-0.44;83.88;98926.56;4948432;28;20238;-79
2021/01/28 05:13:35;;;;;;;0.40;0.40;;;;;;;-0.54;84.18;98904.88;4934835;29;20224;-79
2021/01/28 05:16:45;;;;;;;0.40;0.40;;;;;;;-0.40;83.92;98927.88;4919519;29;20326;-80
2021/01/28 05:19:49;;;;;;;0.40;0.40;;;;;;;-0.41;84.09;98915.69;4936935;23;20231;-80
2021/01/28 05:22:34;;;;;;;0.40;0.40;;;;;;;-0.46;83.85;98895.16;4924314;28;20879;-80
2021/01/28 05:25:41;;;;;;;0.40;0.40;;;;;;;-0.43;84.13;98904.53;4929803;29;20227;-79
2021/01/28 05:28:26;;;;;;;0.40;0.40;;;;;;;-0.37;84.41;98908.31;4865201;29;20240;-79
2021/01/28 05:31:19;;;;;;;0.30;0.30;;;;;;;-0.39;84.41;98897.94;4895270;29;20435;-79
2021/01/28 05:34:08;;;;;;;0.40;0.40;;;;;;;-0.31;84.02;98910.25;4894522;23;20231;-80
2021/01/28 05:37:05;;;;;;;0.40;0.40;;;;;;;-0.29;84.03;98905.66;4851234;29;20274;-79
2021/01/28 05:40:29;;;;;;;0.40;0.40;;;;;;;-0.28;83.91;98902.03;4852891;28;20291;-79
2021/01/28 05:43:31;;;;;;;0.40;0.40;;;;;;;-0.27;84.30;98904.50;4851542;29;20266;-79
2021/01/28 05:46:23;;;;;;;0.40;0.40;;;;;;;-0.38;83.66;98875.09;4852465;29;20290;-78
2021/01/28 05:49:08;;;;;;;0.40;0.40;;;;;;;-0.31;83.80;98874.22;4851534;29;20235;-79
2021/01/28 05:52:40;;;;;;;0.40;0.40;;;;;;;-0.26;83.92;98898.25;4852141;29;20203;-79
2021/01/28 05:55:40;;;;;;;0.40;0.40;;;;;;;-0.26;83.41;98892.97;4856988;29;20223;-79
2021/01/28 05:58:31;;;;;;;0.40;0.40;;;;;;;-0.26;84.00;98892.16;4855582;29;20245;-79
2021/01/28 06:01:48;;;;;;;0.40;0.40;;;;;;;-0.31;83.49;98876.88;4857284;29;20230;-79
2021/01/28 06:04:56;;;;;;;0.40;0.40;;;;;;;-0.35;83.61;98867.66;4897237;23;20231;-80
2021/01/28 06:07:55;;;;;;;0.40;0.40;;;;;;;-0.34;83.27;98865.84;4929503;23;20218;-79
2021/01/28 06:11:19;;;;;;;0.47;0.47;;;;;;;-0.29;83.37;98871.44;4949564;28;20238;-80
2021/01/28 06:14:26;;;;;;;0.30;0.30;;;;;;;-0.28;83.50;98868.63;4936603;23;20659;-79
2021/01/28 06:17:20;;;;;;;0.50;0.50;;;;;;;-0.37;83.38;98856.47;4931976;29;20204;-79
2021/01/28 06:20:35;;;;;;;0.50;0.50;;;;;;;-0.28;83.28;98879.16;4931110;29;20240;-79
2021/01/28 06:23:52;;;;;;;0.40;0.40;;;;;;;-0.24;83.46;98879.66;4927219;23;20220;-79
2021/01/28 06:26:41;;;;;;;0.40;0.40;;;;;;;-0.21;83.61;98881.94;4877173;23;20323;-79
2021/01/28 06:29:52;;;;;;;0.40;0.40;;;;;;;-0.25;83.36;98878.00;4965561;23;20251;-78
2021/01/28 06:32:48;;;;;;;0.40;0.40;;;;;;;-0.20;83.81;98878.31;4956714;23;20235;-80
2021/01/28 06:35:53;;;;;;;0.40;0.40;;;;;;;-0.19;83.63;98891.31;4937960;29;20222;-79
2021/01/28 06:39:23;;;;;;;0.40;0.40;;;;;;;-0.20;82.65;98881.78;4955950;23;20216;-81
2021/01/28 06:42:39;;;;;;;0.40;0.40;;;;;;;-0.22;82.69;98886.38;4917174;29;20238;-79
2021/01/28 06:45:38;;;;;;;0.40;0.40;;;;;;;-0.30;82.64;98875.88;4936838;28;20236;-80
2021/01/28 06:48:22;;;;;;;0.40;0.40;;;;;;;-0.28;82.90;98894.16;4958342;28;20223;-79
2021/01/28 06:51:32;;;;;;;0.40;0.40;;;;;;;-0.22;82.55;98885.56;4960525;23;20232;-79
2021/01/28 06:54:07;;;;;;;0.40;0.40;;;;;;;-0.24;82.99;98875.22;4924192;29;20218;-79
2021/01/28 06:57:09;;;;;;;0.47;0.47;;;;;;;-0.29;82.83;98871.44;4942758;23;20281;-79
2021/01/28 07:00:19;;;;;;;0.40;0.40;;;;;;;-0.31;82.65;98866.34;4913800;23;20233;-79
2021/01/28 07:02:57;;;;;;;0.40;0.40;;;;;;;-0.25;82.76;98880.63;4937001;23;20226;-78
2021/01/28 07:05:45;;;;;;;0.50;0.50;;;;;;;-0.22;82.65;98867.94;4924674;29;20230;-79
2021/01/28 07:09:02;;;;;;;0.40;0.40;;;;;;;-0.16;82.61;98869.91;4942342;29;20234;-79
2021/01/28 07:11:43;;;;;;;0.50;0.50;;;;;;;-0.06;81.98;98878.44;4970864;28;20301;-79
2021/01/28 07:14:51;;;;;;;0.40;0.40;;;;;;;0.00;81.63;98880.38;4970480;29;20618;-80
2021/01/28 07:18:13;;;;;;;0.40;0.40;;;;;;;0.08;81.05;98870.81;4943093;23;20777;-79
2021/01/28 07:21:17;;;;;;;0.40;0.40;;;;;;;0.04;80.84;98845.81;4975005;28;20710;-79
2021/01/28 07:24:23;;;;;;;0.40;0.40;;;;;;;0.16;80.81;98863.69;4961711;23;20258;-79
2021/01/28 07:27:15;;;;;;;0.40;0.40;;;;;;;0.28;80.29;98861.50;4957516;29;20219;-79
2021/01/28 07:29:55;;;;;;;0.40;0.40;;;;;;;0.32;79.51;98862.78;4938468;23;20243;-79
2021/01/28 07:33:06;;;;;;;0.40;0.40;;;;;;;0.33;79.80;98864.41;4934992;23;20236;-79
2021/01/28 07:36:15;;;;;;;0.40;0.40;;;;;;;0.34;79.95;98856.34;4939422;29;20227;-79
2021/01/28 07:39:29;;;;;;;0.43;0.43;;;;;;;0.45;79.88;98868.31;4949393;23;20228;-80
2021/01/28 07:43:18;;;;;;;0.40;0.40;;;;;;;0.51;78.78;98836.00;4929534;29;20230;-79
2021/01/28 07:46:35;;;;;;;0.40;0.40;;;;;;;0.64;78.87;98832.78;4954257;23;20546;-79
2021/01/28 07:49:35;;;;;;;0.40;0.40;;;;;;;0.74;78.60;98820.19;4944457;23;20224;-80
2021/01/28 07:52:55;;;;;;;0.40;0.40;;;;;;;0.75;78.68;98822.63;4961301;28;20234;-80
2021/01/28 07:56:15;;;;;;;0.40;0.40;;;;;;;0.97;78.15;98830.72;4972798;28;20221;-80
2021/01/28 07:58:46;;;;;;;0.50;0.50;;;;;;;0.95;78.07;98817.69;4978136;28;20226;-80
2021/01/28 08:01:13;;;;;;;0.40;0.40;;;;;;;1.06;77.89;98817.28;4961920;28;20235;-80
2021/01/28 08:04:05;;;;;;;0.40;0.40;;;;;;;1.21;76.92;98819.94;4949963;28;20227;-81
2021/01/28 08:06:32;;;;;;;0.40;0.40;;;;;;;1.27;76.76;98808.66;4921973;29;20279;-80
2021/01/28 08:09:09;;;;;;;0.40;0.40;;;;;;;1.39;76.38;98812.50;4927906;29;20667;-80
2021/01/28 08:11:37;;;;;;;0.40;0.40;;;;;;;1.56;75.72;98821.06;4965275;23;20208;-80
2021/01/28 08:14:06;;;;;;;0.40;0.40;;;;;;;1.68;75.16;98819.63;4912725;28;20240;-81
2021/01/28 08:16:52;;;;;;;0.40;0.40;;;;;;;1.69;75.22;98810.66;4936854;28;20239;-80
2021/01/28 08:19:26;;;;;;;0.40;0.40;;;;;;;1.81;75.23;98814.50;4975290;28;20227;-80
2021/01/28 08:22:09;;;;;;;0.30;0.30;;;;;;;1.90;74.71;98812.59;4921457;29;20197;-80
2021/01/28 08:24:39;;;;;;;0.40;0.40;;;;;;;1.99;74.58;98811.47;4905655;29;20224;-80
2021/01/28 08:27:34;;;;;;;0.40;0.40;;;;;;;2.07;73.61;98804.25;4933914;23;20243;-81
2021/01/28 08:30:23;;;;;;;0.40;0.40;;;;;;;2.11;73.19;98797.59;4938241;23;20269;-81
2021/01/28 08:32:59;;;;;;;0.40;0.40;;;;;;;2.12;73.05;98786.03;4926902;29;20684;-81
2021/01/28 08:35:31;;;;;;;0.40;0.40;;;;;;;2.28;72.97;98790.28;4948727;23;20817;-81
2021/01/28 08:38:27;;;;;;;0.40;0.40;;;;;;;2.31;73.08;98792.53;4920320;23;20240;-81
2021/01/28 08:41:20;;;;;;;0.40;0.40;;;;;;;2.32;72.74;98788.06;4948124;23;20241;-81
2021/01/28 08:46:34;;;;;;;0.40;0.40;;;;;;;2.44;72.63;98790.03;4937006;28;20215;-82
2021/01/28 08:49:05;;;;;;;0.40;0.40;;;;;;;2.54;72.92;98795.00;4924872;29;20208;-82
2021/01/28 08:51:36;;;;;;;0.40;0.40;;;;;;;2.26;72.58;98759.75;4938266;28;20230;-81
2021/01/28 08:54:11;;;;;;;0.40;0.40;;;;;;;2.56;72.71;98779.78;4917675;23;20245;-82
2021/01/28 08:56:39;;;;;;;0.40;0.40;;;;;;;2.61;71.81;98777.41;4901649;29;20237;-82
2021/01/28 08:59:16;;;;;;;0.50;0.50;;;;;;;2.57;71.14;98792.78;4889832;23;20253;-82
2021/01/28 09:01:49;;;;;;;0.40;0.40;;;;;;;2.26;71.35;98768.50;4870766;28;20223;-82
2021/01/28 09:04:44;;;;;;;0.40;0.40;;;;;;;2.39;72.18;98786.31;4886709;28;20238;-82
2021/01/28 09:07:51;;;;;;;0.40;0.40;;;;;;;2.27;72.80;98750.81;4840506;29;20242;-81
2021/01/28 09:10:37;;;;;;;0.40;0.40;;;;;;;2.41;72.76;98756.03;4854780;28;20247;-82
2021/01/28 09:13:20;;;;;;;0.40;0.40;;;;;;;2.71;72.69;98775.22;4841345;29;20243;-81
2021/01/28 09:15:50;;;;;;;0.40;0.40;;;;;;;2.71;72.15;98759.34;4842078;29;20218;-82
2021/01/28 09:18:51;;;;;;;0.40;0.40;;;;;;;2.68;72.02;98743.88;4925680;23;20258;-82
2021/01/28 09:24:35;;;;;;;0.40;0.40;;;;;;;3.19;71.62;98754.22;1415997;26;20246;-82
2021/01/28 09:27:36;;;;;;;0.40;0.40;;;;;;;3.30;71.34;98743.94;4940621;28;20236;-82
2021/01/28 09:30:23;;;;;;;0.40;0.40;;;;;;;3.51;71.33;98766.84;4922851;29;20235;-81
2021/01/28 09:32:55;;;;;;;0.40;0.40;;;;;;;3.52;71.06;98752.59;4917950;29;20239;-82
2021/01/28 09:36:19;;;;;;;0.50;0.50;;;;;;;3.80;70.72;98768.44;4936060;29;20227;-82
2021/01/28 09:39:42;;;;;;;0.40;0.40;;;;;;;4.03;69.71;98753.03;4940257;29;20263;-82
2021/01/28 09:46:44;;;;;;;0.40;0.40;;;;;;;3.97;66.65;98703.47;4950940;29;20240;-82
2021/01/28 09:49:23;;;;;;;0.40;0.40;;;;;;;4.25;65.50;98730.66;4949001;23;20216;-83
2021/01/28 09:51:55;;;;;;;0.40;0.40;;;;;;;4.19;64.76;98694.34;4938842;29;20232;-82
2021/01/28 09:54:25;;;;;;;0.40;0.40;;;;;;;4.12;64.52;98682.91;4936735;29;20216;-82
2021/01/28 09:57:16;;;;;;;0.40;0.40;;;;;;;4.27;63.06;98704.78;4932275;29;20323;-82
2021/01/28 09:59:43;;;;;;;0.40;0.40;;;;;;;4.27;61.77;98683.56;4934927;29;20848;-82
2021/01/28 10:02:14;;;;;;;0.40;0.40;;;;;;;4.42;61.44;98688.66;4926721;29;20220;-82
2021/01/28 10:04:43;;;;;;;0.40;0.40;;;;;;;4.63;61.11;98685.00;4922629;29;20227;-82
2021/01/28 10:07:19;;;;;;;0.40;0.40;;;;;;;4.79;59.37;98684.59;4954795;28;20232;-81
2021/01/28 10:10:02;;;;;;;0.40;0.40;;;;;;;4.75;59.69;98670.09;4956006;29;20217;-81
2021/01/28 10:12:32;;;;;;;0.40;0.40;;;;;;;4.99;58.97;98684.56;4945077;23;20223;-82
2021/01/28 10:15:33;;;;;;;0.40;0.40;;;;;;;5.18;58.37;98684.50;4921879;29;20198;-82
2021/01/28 10:18:03;;;;;;;0.40;0.40;;;;;;;5.23;57.64;98673.28;4919309;29;20237;-82
2021/01/28 10:20:42;;;;;;;0.40;0.40;;;;;;;5.40;56.77;98676.31;4935077;29;20257;-81
2021/01/28 10:23:15;;;;;;;0.30;0.30;;;;;;;5.28;55.89;98644.25;4908378;29;20305;-82
2021/01/28 10:25:46;;;;;;;0.40;0.40;;;;;;;5.52;55.82;98670.13;4919244;23;20288;-82
2021/01/28 10:28:21;;;;;;;0.40;0.40;;;;;;;5.49;56.20;98665.22;4945605;23;20300;-82
2021/01/28 10:30:54;;;;;;;0.40;0.40;;;;;;;5.52;55.43;98654.19;5185264;23;20219;-83
2021/01/28 10:33:29;;;;;;;0.30;0.30;;;;;;;5.58;55.21;98634.75;4958379;23;20225;-82
2021/01/28 10:36:07;;;;;;;0.30;0.30;;;;;;;5.54;54.42;98603.50;4964536;28;20240;-83
2021/01/28 10:38:40;;;;;;;0.30;0.30;;;;;;;5.61;54.83;98605.06;4944157;29;20230;-83
2021/01/28 10:41:33;;;;;;;0.40;0.40;;;;;;;5.79;54.76;98601.69;5047320;23;20299;-83
2021/01/28 10:44:48;;;;;;;0.40;0.40;;;;;;;5.87;54.17;98598.84;4938067;23;20220;-83
2021/01/28 10:47:53;;;;;;;0.40;0.40;;;;;;;5.96;54.03;98599.41;5066622;23;20238;-83
2021/01/28 10:50:43;;;;;;;0.30;0.30;;;;;;;5.93;54.00;98578.53;4947223;28;20237;-83
2021/01/28 10:53:41;;;;;;;0.40;0.40;;;;;;;6.23;53.48;98608.00;4915987;23;20232;-83
2021/01/28 10:56:24;;;;;;;0.40;0.40;;;;;;;6.12;54.01;98575.75;4902983;29;20296;-84
2021/01/28 10:59:25;;;;;;;0.40;0.40;;;;;;;6.39;53.55;98594.16;5245084;24;20231;-83
2021/01/28 11:02:03;;;;;;;0.30;0.30;;;;;;;6.45;53.84;98599.41;5026110;23;20270;-83
2021/01/28 11:04:45;;;;;;;0.40;0.40;;;;;;;6.39;54.20;98568.34;5056842;23;20273;-82
2021/01/28 11:07:16;;;;;;;0.30;0.30;;;;;;;6.52;53.59;98581.56;4952524;28;20224;-83
2021/01/28 11:09:56;;;;;;;0.30;0.30;;;;;;;6.20;53.46;98540.09;4941437;23;20225;-82
2021/01/28 11:12:38;;;;;;;0.40;0.40;;;;;;;6.28;55.04;98546.97;4933429;23;20221;-83
2021/01/28 11:22:31;;;;;;;0.40;0.40;;;;;;;6.26;56.11;98531.22;4920847;29;20472;-83
2021/01/28 11:28:32;;;;;;;0.40;0.40;;;;;;;6.17;55.28;98488.13;4977990;28;20262;-83
2021/01/28 11:31:21;;;;;;;0.40;0.40;;;;;;;6.14;55.86;98471.81;4960437;28;20218;-84
2021/01/28 11:34:42;;;;;;;0.40;0.40;;;;;;;6.53;55.40;98518.50;4978842;28;20211;-84
2021/01/28 11:37:54;;;;;;;0.40;0.40;;;;;;;6.23;54.51;98477.66;5064446;23;20219;-83
2021/01/28 11:44:42;;;;;;;0.33;0.33;;;;;;;6.35;55.84;98484.69;4966494;23;20238;-82
2021/01/28 11:48:29;;;;;;;0.40;0.40;;;;;;;6.51;55.93;98499.28;5065124;23;20257;-83
2021/01/28 11:54:36;;;;;;;0.37;0.37;;;;;;;6.59;55.68;98493.66;745971;23;20561;-84
2021/01/28 12:05:40;;;;;;;0.40;0.40;;;;;;;6.71;54.50;98467.13;4876973;23;20229;-82
2021/01/28 12:08:41;;;;;;;0.40;0.40;;;;;;;6.72;54.12;98458.91;5182838;23;20240;-82
2021/01/28 12:11:16;;;;;;;0.30;0.30;;;;;;;6.65;53.96;98452.84;4888457;29;20224;-81
2021/01/28 12:13:51;;;;;;;0.30;0.30;;;;;;;6.68;54.62;98455.06;4912274;29;20244;-79
2021/01/28 12:16:19;;;;;;;0.30;0.30;;;;;;;6.58;54.32;98425.50;4881075;29;20232;-81
2021/01/28 12:18:46;;;;;;;0.30;0.30;;;;;;;6.69;54.43;98446.03;4912828;29;20283;-81
2021/01/28 12:21:41;;;;;;;0.30;0.30;;;;;;;6.61;54.00;98444.50;4924097;29;20223;-80
2021/01/28 12:24:08;;;;;;;0.40;0.40;;;;;;;6.53;54.60;98433.34;4900130;29;20728;-81
2021/01/28 12:26:34;;;;;;;0.40;0.40;;;;;;;6.53;56.11;98438.69;4912640;29;20220;-81
2021/01/28 12:29:02;;;;;;;0.30;0.30;;;;;;;6.46;55.79;98421.97;4917363;29;20177;-80
2021/01/28 12:31:28;;;;;;;0.30;0.30;;;;;;;6.24;55.86;98396.84;4933381;29;20189;-81
2021/01/28 12:33:55;;;;;;;0.40;0.40;;;;;;;6.31;55.97;98413.53;4912393;23;20216;-80
2021/01/28 12:36:22;;;;;;;0.40;0.40;;;;;;;6.17;56.60;98404.88;4908582;23;20231;-81
2021/01/28 12:38:49;;;;;;;0.40;0.40;;;;;;;6.10;56.43;98394.34;4917174;29;20254;-81
2021/01/28 12:41:15;;;;;;;0.30;0.30;;;;;;;6.04;56.01;98405.84;4921135;23;20682;-81
2021/01/28 12:43:42;;;;;;;0.40;0.40;;;;;;;6.02;56.45;98402.56;4911996;29;20239;-82
2021/01/28 12:46:09;;;;;;;0.30;0.30;;;;;;;5.89;57.56;98389.41;4915996;23;20217;-81
2021/01/28 12:48:35;;;;;;;0.40;0.40;;;;;;;5.92;57.25;98393.50;4918809;23;20315;-80
2021/01/28 12:51:02;;;;;;;0.40;0.40;;;;;;;5.90;57.34;98408.84;4938096;23;20228;-81
2021/01/28 12:53:28;;;;;;;0.40;0.40;;;;;;;5.69;57.77;98370.19;4934028;29;20320;-81
2021/01/28 12:55:55;;;;;;;0.40;0.40;;;;;;;5.65;58.76;98366.31;4933023;29;20240;-81
2021/01/28 12:58:21;;;;;;;0.30;0.30;;;;;;;5.46;58.62;98344.19;4947638;28;20270;-81
2021/01/28 13:00:49;;;;;;;0.30;0.30;;;;;;;5.45;59.93;98350.56;4951850;28;20230;-81
2021/01/28 13:03:17;;;;;;;0.40;0.40;;;;;;;5.50;60.16;98369.31;4954438;29;20258;-81
2021/01/28 13:05:43;;;;;;;0.30;0.30;;;;;;;5.50;60.53;98355.22;4873010;23;20247;-81
2021/01/28 13:08:11;;;;;;;0.30;0.30;;;;;;;5.35;61.38;98321.03;4898583;23;20225;-81
2021/01/28 13:10:37;;;;;;;0.40;0.40;;;;;;;5.34;60.54;98314.06;4943062;28;20208;-81
2021/01/28 13:13:03;;;;;;;0.40;0.40;;;;;;;5.45;59.72;98353.22;4931020;29;20198;-81
2021/01/28 13:15:33;;;;;;;0.40;0.40;;;;;;;5.33;61.03;98347.78;4931944;29;20777;-81
2021/01/28 13:18:04;;;;;;;0.40;0.40;;;;;;;5.22;61.65;98339.72;4946475;28;20286;-81
2021/01/28 13:20:31;;;;;;;0.40;0.40;;;;;;;4.90;62.56;98300.97;4901233;29;20240;-80
2021/01/28 13:22:58;;;;;;;0.40;0.40;;;;;;;4.82;62.93;98305.50;4939840;28;20241;-81
2021/01/28 13:25:25;;;;;;;0.40;0.40;;;;;;;4.94;63.27;98304.81;4932501;29;20303;-81
2021/01/28 13:27:53;;;;;;;0.40;0.40;;;;;;;4.92;63.52;98307.69;4933533;29;20222;-81
2021/01/28 13:30:23;;;;;;;0.50;0.50;;;;;;;4.93;63.40;98300.53;4939393;23;20234;-81
2021/01/28 13:32:52;;;;;;;0.40;0.40;;;;;;;4.85;63.79;98272.44;4918333;29;20230;-81
2021/01/28 13:35:22;;;;;;;0.33;0.33;;;;;;;4.96;64.11;98286.81;4929267;23;20238;-82